Time,TemperatureF,DewpointF,PressureIn,WindDirection,WindDirectionDegrees,WindSpeedMPH,WindSpeedGustMPH,Humidity,HourlyPrecipIn,Conditions,Clouds,dailyrainin,SoftwareType,DateUTC
2013-02-25 00:01:00,68.0,65.0,29.84,ESE,113,0.0,0.0,90,0.00,,,0.00,,2013-02-25 05:01:00,
2013-02-25 00:11:00,68.0,65.0,29.84,ESE,113,0.0,0.0,90,0.00,,,0.00,,2013-02-25 05:11:00,
2013-02-25 00:22:00,68.0,65.0,29.83,SE,132,0.0,1.0,91,0.00,,,0.00,,2013-02-25 05:22:00,
2013-02-25 00:32:00,68.0,65.0,29.83,SE,141,0.0,0.0,91,0.00,,,0.00,,2013-02-25 05:32:00,
2013-02-25 00:42:00,68.0,65.0,29.83,SE,141,0.0,0.0,91,0.00,,,0.00,,2013-02-25 05:42:00,
2013-02-25 00:52:00,68.0,65.0,29.81,SE,139,0.0,0.0,91,0.00,,,0.00,,2013-02-25 05:52:00,
2013-02-25 01:02:00,68.0,65.0,29.81,SE,139,0.0,0.0,91,0.00,,,0.00,,2013-02-25 06:02:00,
2013-02-25 01:11:00,68.0,65.0,29.81,SE,139,0.0,0.0,91,0.00,,,0.00,,2013-02-25 06:11:00,
2013-02-25 01:21:00,68.0,65.0,29.81,SE,139,0.0,0.0,91,0.00,,,0.00,,2013-02-25 06:21:00,
2013-02-25 01:32:00,67.0,64.0,29.82,SE,139,0.0,0.0,91,0.00,,,0.00,,2013-02-25 06:32:00,
2013-02-25 01:42:00,67.0,64.0,29.82,SE,139,0.0,0.0,91,0.00,,,0.00,,2013-02-25 06:42:00,
2013-02-25 01:52:00,67.0,64.0,29.80,SE,139,0.0,0.0,91,0.00,,,0.00,,2013-02-25 06:52:00,
2013-02-25 02:01:00,67.0,65.0,29.80,SE,139,0.0,0.0,92,0.00,,,0.00,,2013-02-25 07:01:00,
2013-02-25 02:11:00,67.0,65.0,29.81,SE,139,0.0,0.0,92,0.00,,,0.00,,2013-02-25 07:11:00,
2013-02-25 02:21:00,67.0,65.0,29.81,SE,139,0.0,0.0,92,0.00,,,0.00,,2013-02-25 07:21:00,
2013-02-25 02:32:00,67.0,65.0,29.80,SE,139,0.0,0.0,92,0.00,,,0.00,,2013-02-25 07:32:00,
2013-02-25 02:42:00,67.0,65.0,29.80,SE,139,0.0,0.0,92,0.00,,,0.00,,2013-02-25 07:42:00,
2013-02-25 02:52:00,66.0,64.0,29.81,SE,139,0.0,0.0,92,0.00,,,0.00,,2013-02-25 07:52:00,
2013-02-25 03:01:00,66.0,64.0,29.80,SE,139,0.0,0.0,92,0.00,,,0.00,,2013-02-25 08:01:00,
2013-02-25 03:11:00,66.0,64.0,29.80,SE,139,0.0,0.0,92,0.00,,,0.00,,2013-02-25 08:11:00,
2013-02-25 03:21:00,66.0,64.0,29.78,ENE,74,2.0,2.0,92,0.00,,,0.00,,2013-02-25 08:21:00,
2013-02-25 03:32:00,66.0,64.0,29.78,ENE,74,0.0,0.0,92,0.00,,,0.00,,2013-02-25 08:32:00,
2013-02-25 03:42:00,66.0,64.0,29.78,ENE,74,0.0,0.0,92,0.00,,,0.00,,2013-02-25 08:42:00,
2013-02-25 03:52:00,66.0,64.0,29.78,ENE,74,1.0,2.0,93,0.00,,,0.00,,2013-02-25 08:52:00,
2013-02-25 04:01:00,67.0,65.0,29.77,East,95,3.0,5.0,93,0.00,,,0.00,,2013-02-25 09:01:00,
2013-02-25 04:12:00,67.0,65.0,29.77,East,95,3.0,5.0,93,0.00,,,0.00,,2013-02-25 09:12:00,
2013-02-25 04:21:00,67.0,65.0,29.77,East,86,1.0,2.0,93,0.00,,,0.00,,2013-02-25 09:21:00,
2013-02-25 04:32:00,67.0,65.0,29.78,East,80,1.0,2.0,93,0.00,,,0.00,,2013-02-25 09:32:00,
2013-02-25 04:42:00,67.0,65.0,29.78,East,80,1.0,2.0,93,0.00,,,0.00,,2013-02-25 09:42:00,
2013-02-25 04:52:00,67.0,65.0,29.76,East,86,1.0,2.0,94,0.00,,,0.00,,2013-02-25 09:52:00,
2013-02-25 05:01:00,67.0,65.0,29.76,East,93,0.0,2.0,94,0.00,,,0.00,,2013-02-25 10:01:00,
2013-02-25 05:11:00,67.0,65.0,29.76,East,93,0.0,2.0,94,0.00,,,0.00,,2013-02-25 10:11:00,
2013-02-25 05:21:00,67.0,65.0,29.77,ESE,105,1.0,2.0,94,0.00,,,0.00,,2013-02-25 10:21:00,
2013-02-25 05:32:00,67.0,65.0,29.77,SE,140,0.0,0.0,94,0.00,,,0.00,,2013-02-25 10:32:00,
2013-02-25 05:42:00,67.0,65.0,29.77,SE,140,0.0,0.0,94,0.00,,,0.00,,2013-02-25 10:42:00,
2013-02-25 05:52:00,67.0,65.0,29.77,South,173,1.0,3.0,94,0.00,,,0.00,,2013-02-25 10:52:00,
2013-02-25 06:01:00,67.0,65.0,29.77,East,96,0.0,2.0,94,0.00,,,0.00,,2013-02-25 11:01:00,
2013-02-25 06:11:00,67.0,65.0,29.77,East,96,0.0,2.0,94,0.00,,,0.00,,2013-02-25 11:11:00,
2013-02-25 06:22:00,67.0,65.0,29.77,ESE,104,2.0,3.0,94,0.00,,,0.00,,2013-02-25 11:22:00,
2013-02-25 06:32:00,67.0,65.0,29.76,East,84,2.0,3.0,94,0.00,,,0.00,,2013-02-25 11:32:00,
2013-02-25 06:42:00,67.0,65.0,29.76,East,84,2.0,3.0,94,0.00,,,0.00,,2013-02-25 11:42:00,
2013-02-25 06:52:00,66.0,64.0,29.77,ESE,107,0.0,1.0,94,0.00,,,0.00,,2013-02-25 11:52:00,
2013-02-25 07:02:00,66.0,65.0,29.78,ESE,111,0.0,0.0,95,0.00,,,0.00,,2013-02-25 12:02:00,
2013-02-25 07:11:00,66.0,65.0,29.78,ESE,111,0.0,0.0,95,0.00,,,0.00,,2013-02-25 12:11:00,
2013-02-25 07:22:00,67.0,66.0,29.79,ESE,114,0.0,0.0,95,0.00,,,0.00,,2013-02-25 12:22:00,
2013-02-25 07:32:00,67.0,66.0,29.80,ESE,116,0.0,0.0,95,0.00,,,0.00,,2013-02-25 12:32:00,
2013-02-25 07:42:00,67.0,66.0,29.80,ESE,116,0.0,0.0,95,0.00,,,0.00,,2013-02-25 12:42:00,
2013-02-25 08:02:00,67.0,66.0,29.79,ESE,103,0.0,2.0,95,0.00,,,0.00,,2013-02-25 13:02:00,
2013-02-25 08:12:00,67.0,66.0,29.79,ESE,103,0.0,2.0,95,0.00,,,0.00,,2013-02-25 13:12:00,
2013-02-25 08:23:00,67.0,66.0,29.80,ESE,107,0.0,0.0,96,0.00,,,0.00,,2013-02-25 13:23:00,
2013-02-25 08:32:00,68.0,67.0,29.80,ESE,111,1.0,2.0,96,0.00,,,0.00,,2013-02-25 13:32:00,
2013-02-25 08:42:00,68.0,67.0,29.80,ESE,111,1.0,2.0,96,0.00,,,0.00,,2013-02-25 13:42:00,
2013-02-25 08:52:00,68.0,67.0,29.80,ESE,107,2.0,4.0,96,0.00,,,0.00,,2013-02-25 13:52:00,
2013-02-25 09:03:00,69.0,68.0,29.81,East,85,1.0,3.0,96,0.00,,,0.00,,2013-02-25 14:03:00,
2013-02-25 09:17:00,69.0,68.0,29.81,East,85,1.0,3.0,96,0.00,,,0.00,,2013-02-25 14:17:00,
2013-02-25 09:32:00,71.0,70.0,29.81,SE,130,3.0,5.0,96,0.00,,,0.00,,2013-02-25 14:32:00,
2013-02-25 09:42:00,71.0,70.0,29.81,SE,130,3.0,5.0,96,0.00,,,0.00,,2013-02-25 14:42:00,
2013-02-25 09:52:00,72.0,70.0,29.81,South,174,2.0,3.0,94,0.00,,,0.00,,2013-02-25 14:52:00,
2013-02-25 10:03:00,73.0,69.0,29.81,SE,134,0.0,1.0,88,0.00,,,0.00,,2013-02-25 15:03:00,
2013-02-25 10:11:00,73.0,69.0,29.81,SE,134,0.0,1.0,88,0.00,,,0.00,,2013-02-25 15:11:00,
2013-02-25 10:22:00,76.0,68.0,29.81,ESE,102,0.0,2.0,77,0.00,,,0.00,,2013-02-25 15:22:00,
2013-02-25 10:32:00,78.0,67.0,29.80,East,97,1.0,4.0,69,0.00,,,0.00,,2013-02-25 15:32:00,
2013-02-25 10:52:00,78.0,67.0,29.79,ESE,111,1.0,5.0,68,0.00,,,0.00,,2013-02-25 15:52:00,
2013-02-25 11:02:00,79.0,68.0,29.78,ESE,109,1.0,3.0,69,0.00,,,0.00,,2013-02-25 16:02:00,
2013-02-25 11:12:00,79.0,68.0,29.78,ESE,109,1.0,3.0,69,0.00,,,0.00,,2013-02-25 16:12:00,
2013-02-25 11:22:00,78.0,67.0,29.79,SSE,147,0.0,2.0,68,0.00,,,0.00,,2013-02-25 16:22:00,
2013-02-25 11:32:00,79.0,68.0,29.79,South,171,0.0,2.0,70,0.00,,,0.00,,2013-02-25 16:32:00,
2013-02-25 11:42:00,79.0,68.0,29.79,South,171,0.0,2.0,70,0.00,,,0.00,,2013-02-25 16:42:00,
2013-02-25 11:52:00,80.0,68.0,29.78,SE,146,0.0,0.0,66,0.00,,,0.00,,2013-02-25 16:52:00,
2013-02-25 12:01:00,80.0,67.0,29.78,East,84,0.0,0.0,65,0.00,,,0.00,,2013-02-25 17:01:00,
2013-02-25 12:11:00,80.0,67.0,29.78,East,84,0.0,0.0,65,0.00,,,0.00,,2013-02-25 17:11:00,
2013-02-25 12:21:00,81.0,67.0,29.78,ESE,103,0.0,0.0,63,0.00,,,0.00,,2013-02-25 17:21:00,
2013-02-25 12:32:00,82.0,67.0,29.76,SE,142,2.0,9.0,61,0.00,,,0.00,,2013-02-25 17:32:00,
2013-02-25 12:42:00,82.0,67.0,29.76,SE,142,2.0,9.0,61,0.00,,,0.00,,2013-02-25 17:42:00,
2013-02-25 12:52:00,83.0,65.0,29.75,SSE,150,1.0,6.0,54,0.00,,,0.00,,2013-02-25 17:52:00,
2013-02-25 13:02:00,84.0,65.0,29.75,South,170,4.0,7.0,53,0.00,,,0.00,,2013-02-25 18:02:00,
2013-02-25 13:12:00,84.0,65.0,29.75,South,170,4.0,7.0,53,0.00,,,0.00,,2013-02-25 18:12:00,
2013-02-25 13:21:00,84.0,65.0,29.75,SW,216,7.0,9.0,53,0.00,,,0.00,,2013-02-25 18:21:00,
2013-02-25 13:33:00,84.0,64.0,29.75,WSW,252,7.0,10.0,52,0.00,,,0.00,,2013-02-25 18:33:00,
2013-02-25 13:42:00,84.0,64.0,29.75,WSW,252,7.0,10.0,52,0.00,,,0.00,,2013-02-25 18:42:00,
2013-02-25 13:52:00,84.0,66.0,29.73,SSW,195,8.0,15.0,55,0.00,,,0.00,,2013-02-25 18:52:00,
2013-02-25 14:01:00,84.0,67.0,29.72,SSE,152,7.0,14.0,56,0.00,,,0.00,,2013-02-25 19:01:00,
2013-02-25 14:11:00,84.0,67.0,29.72,SSE,152,7.0,14.0,56,0.00,,,0.00,,2013-02-25 19:11:00,
2013-02-25 14:22:00,83.0,67.0,29.72,SSE,148,6.0,13.0,58,0.00,,,0.00,,2013-02-25 19:22:00,
2013-02-25 14:32:00,84.0,66.0,29.72,SW,219,8.0,15.0,54,0.00,,,0.00,,2013-02-25 19:32:00,
2013-02-25 14:42:00,84.0,66.0,29.72,SW,219,8.0,15.0,54,0.00,,,0.00,,2013-02-25 19:42:00,
2013-02-25 14:52:00,84.0,66.0,29.72,South,190,6.0,14.0,55,0.00,,,0.00,,2013-02-25 19:52:00,
2013-02-25 15:01:00,85.0,66.0,29.71,SSW,196,6.0,9.0,53,0.00,,,0.00,,2013-02-25 20:01:00,
2013-02-25 15:11:00,85.0,66.0,29.71,SSW,196,6.0,9.0,53,0.00,,,0.00,,2013-02-25 20:11:00,
2013-02-25 15:21:00,84.0,65.0,29.71,West,260,9.0,14.0,53,0.00,,,0.00,,2013-02-25 20:21:00,
2013-02-25 15:32:00,84.0,64.0,29.71,South,169,6.0,13.0,52,0.00,,,0.00,,2013-02-25 20:32:00,
2013-02-25 15:42:00,84.0,64.0,29.71,South,169,6.0,13.0,52,0.00,,,0.00,,2013-02-25 20:42:00,
2013-02-25 15:52:00,84.0,65.0,29.71,SW,235,9.0,15.0,53,0.00,,,0.00,,2013-02-25 20:52:00,
2013-02-25 16:01:00,84.0,66.0,29.71,SW,227,6.0,13.0,54,0.00,,,0.00,,2013-02-25 21:01:00,
2013-02-25 16:11:00,84.0,66.0,29.71,SW,227,6.0,13.0,54,0.00,,,0.00,,2013-02-25 21:11:00,
2013-02-25 16:21:00,83.0,64.0,29.71,SSW,200,11.0,17.0,53,0.00,,,0.00,,2013-02-25 21:21:00,
2013-02-25 16:32:00,83.0,66.0,29.71,SSW,199,4.0,10.0,56,0.00,,,0.00,,2013-02-25 21:32:00,
2013-02-25 16:42:00,83.0,66.0,29.71,SSW,199,4.0,10.0,56,0.00,,,0.00,,2013-02-25 21:42:00,
2013-02-25 16:52:00,82.0,66.0,29.70,South,180,6.0,12.0,58,0.00,,,0.00,,2013-02-25 21:52:00,
2013-02-25 17:01:00,82.0,66.0,29.70,South,185,5.0,8.0,58,0.00,,,0.00,,2013-02-25 22:01:00,
2013-02-25 17:11:00,82.0,66.0,29.70,South,185,5.0,8.0,58,0.00,,,0.00,,2013-02-25 22:11:00,
2013-02-25 17:21:00,82.0,66.0,29.70,SSW,192,5.0,7.0,59,0.00,,,0.00,,2013-02-25 22:21:00,
2013-02-25 17:32:00,81.0,66.0,29.70,SSW,195,3.0,6.0,61,0.00,,,0.00,,2013-02-25 22:32:00,
2013-02-25 17:42:00,81.0,66.0,29.70,SSW,195,3.0,6.0,61,0.00,,,0.00,,2013-02-25 22:42:00,
2013-02-25 17:52:00,80.0,66.0,29.70,SW,221,3.0,10.0,62,0.00,,,0.00,,2013-02-25 22:52:00,
2013-02-25 18:01:00,80.0,66.0,29.71,SSW,209,3.0,5.0,63,0.00,,,0.00,,2013-02-25 23:01:00,
2013-02-25 18:11:00,80.0,66.0,29.71,SSW,209,3.0,5.0,63,0.00,,,0.00,,2013-02-25 23:11:00,
2013-02-25 18:22:00,79.0,66.0,29.71,South,180,1.0,3.0,64,0.00,,,0.00,,2013-02-25 23:22:00,
2013-02-25 18:32:00,79.0,66.0,29.71,SSW,209,1.0,5.0,64,0.00,,,0.00,,2013-02-25 23:32:00,
2013-02-25 18:42:00,79.0,66.0,29.71,SSW,209,1.0,5.0,64,0.00,,,0.00,,2013-02-25 23:42:00,
2013-02-25 18:52:00,79.0,66.0,29.71,SW,223,0.0,0.0,64,0.00,,,0.00,,2013-02-25 23:52:00,
2013-02-25 19:01:00,78.0,65.0,29.71,South,182,0.0,0.0,65,0.00,,,0.00,,2013-02-26 00:01:00,
2013-02-25 19:12:00,78.0,65.0,29.71,South,182,0.0,0.0,65,0.00,,,0.00,,2013-02-26 00:12:00,
2013-02-25 19:22:00,77.0,65.0,29.72,SSW,195,0.0,0.0,66,0.00,,,0.00,,2013-02-26 00:22:00,
2013-02-25 19:32:00,77.0,66.0,29.71,South,185,0.0,0.0,68,0.00,,,0.00,,2013-02-26 00:32:00,
2013-02-25 19:42:00,77.0,66.0,29.71,South,185,0.0,0.0,68,0.00,,,0.00,,2013-02-26 00:42:00,
2013-02-25 19:52:00,76.0,66.0,29.70,South,173,0.0,1.0,71,0.00,,,0.00,,2013-02-26 00:52:00,
2013-02-25 20:02:00,75.0,66.0,29.71,SE,134,0.0,0.0,73,0.00,,,0.00,,2013-02-26 01:02:00,
2013-02-25 20:11:00,75.0,66.0,29.71,SE,134,0.0,0.0,73,0.00,,,0.00,,2013-02-26 01:11:00,
2013-02-25 20:21:00,74.0,66.0,29.72,SE,130,0.0,0.0,75,0.00,,,0.00,,2013-02-26 01:21:00,
2013-02-25 20:32:00,74.0,66.0,29.72,SE,130,0.0,0.0,76,0.00,,,0.00,,2013-02-26 01:32:00,
2013-02-25 20:42:00,74.0,66.0,29.72,SE,130,0.0,0.0,76,0.00,,,0.00,,2013-02-26 01:42:00,
2013-02-25 20:52:00,73.0,65.0,29.72,SE,130,0.0,0.0,77,0.00,,,0.00,,2013-02-26 01:52:00,
2013-02-25 21:01:00,72.0,64.0,29.72,SE,130,0.0,0.0,77,0.00,,,0.00,,2013-02-26 02:01:00,
2013-02-25 21:11:00,72.0,64.0,29.72,SE,130,0.0,0.0,77,0.00,,,0.00,,2013-02-26 02:11:00,
2013-02-25 21:21:00,72.0,65.0,29.73,SE,130,0.0,0.0,79,0.00,,,0.00,,2013-02-26 02:21:00,
2013-02-25 21:32:00,71.0,64.0,29.73,SE,130,0.0,0.0,79,0.00,,,0.00,,2013-02-26 02:32:00,
2013-02-25 21:42:00,71.0,64.0,29.73,SE,130,0.0,0.0,79,0.00,,,0.00,,2013-02-26 02:42:00,
2013-02-25 21:52:00,70.0,64.0,29.73,SE,130,0.0,0.0,81,0.00,,,0.00,,2013-02-26 02:52:00,
2013-02-25 22:02:00,70.0,64.0,29.72,SE,130,0.0,0.0,82,0.00,,,0.00,,2013-02-26 03:02:00,
2013-02-25 22:11:00,70.0,64.0,29.72,SE,130,0.0,0.0,82,0.00,,,0.00,,2013-02-26 03:11:00,
2013-02-25 22:22:00,69.0,64.0,29.72,SSE,153,0.0,0.0,83,0.00,,,0.00,,2013-02-26 03:22:00,
2013-02-25 22:32:00,70.0,66.0,29.72,SE,131,2.0,5.0,86,0.00,,,0.00,,2013-02-26 03:32:00,
2013-02-25 22:42:00,70.0,66.0,29.72,SE,131,2.0,5.0,86,0.00,,,0.00,,2013-02-26 03:42:00,
2013-02-25 22:52:00,70.0,66.0,29.71,SSE,157,0.0,2.0,87,0.00,,,0.00,,2013-02-26 03:52:00,
2013-02-25 23:01:00,70.0,66.0,29.71,ESE,114,0.0,1.0,88,0.00,,,0.00,,2013-02-26 04:01:00,
2013-02-25 23:11:00,70.0,66.0,29.71,ESE,114,0.0,1.0,88,0.00,,,0.00,,2013-02-26 04:11:00,
2013-02-25 23:22:00,70.0,67.0,29.72,South,186,0.0,2.0,89,0.00,,,0.00,,2013-02-26 04:22:00,
2013-02-25 23:32:00,71.0,68.0,29.71,SSE,150,2.0,5.0,89,0.00,,,0.00,,2013-02-26 04:32:00,
2013-02-25 23:42:00,71.0,68.0,29.71,SSE,150,2.0,5.0,89,0.00,,,0.00,,2013-02-26 04:42:00,
2013-02-25 23:52:00,71.0,68.0,29.72,ESE,106,1.0,2.0,89,0.00,,,0.00,,2013-02-26 04:52:00,